sensor_id;sensor_type;location;lat;lon;timestamp;P1;durP1;ratioP1;P2;durP2;ratioP2
6105;SDS011;3083;51.508;7.966;2023-02-28T00:00:32;10.37;;;3.20;;
6105;SDS011;3083;51.508;7.966;2023-02-28T00:02:59;4.00;;;1.83;;
6105;SDS011;3083;51.508;7.966;2023-02-28T00:05:27;6.60;;;3.20;;
6105;SDS011;3083;51.508;7.966;2023-02-28T00:07:55;8.40;;;2.57;;
6105;SDS011;3083;51.508;7.966;2023-02-28T00:10:22;3.57;;;1.77;;
6105;SDS011;3083;51.508;7.966;2023-02-28T00:12:52;5.97;;;2.37;;
6105;SDS011;3083;51.508;7.966;2023-02-28T00:15:21;6.33;;;2.90;;
6105;SDS011;3083;51.508;7.966;2023-02-28T00:17:51;8.53;;;2.10;;
6105;SDS011;3083;51.508;7.966;2023-02-28T00:20:18;7.00;;;2.93;;
6105;SDS011;3083;51.508;7.966;2023-02-28T00:22:46;6.17;;;1.70;;
6105;SDS011;3083;51.508;7.966;2023-02-28T00:25:15;4.43;;;2.23;;
6105;SDS011;3083;51.508;7.966;2023-02-28T00:27:43;5.83;;;2.50;;
6105;SDS011;3083;51.508;7.966;2023-02-28T00:30:12;6.73;;;3.07;;
6105;SDS011;3083;51.508;7.966;2023-02-28T00:32:40;6.43;;;2.57;;
6105;SDS011;3083;51.508;7.966;2023-02-28T00:35:09;3.37;;;2.00;;
6105;SDS011;3083;51.508;7.966;2023-02-28T00:37:37;4.93;;;2.23;;
6105;SDS011;3083;51.508;7.966;2023-02-28T00:40:05;8.80;;;2.00;;
6105;SDS011;3083;51.508;7.966;2023-02-28T00:42:33;7.93;;;2.70;;
6105;SDS011;3083;51.508;7.966;2023-02-28T00:45:00;6.50;;;2.30;;
6105;SDS011;3083;51.508;7.966;2023-02-28T00:47:28;4.67;;;2.13;;
6105;SDS011;3083;51.508;7.966;2023-02-28T00:49:55;3.93;;;1.87;;
6105;SDS011;3083;51.508;7.966;2023-02-28T00:52:24;3.57;;;1.40;;
6105;SDS011;3083;51.508;7.966;2023-02-28T00:54:50;4.13;;;2.27;;
6105;SDS011;3083;51.508;7.966;2023-02-28T00:57:17;5.47;;;2.70;;
6105;SDS011;3083;51.508;7.966;2023-02-28T00:59:46;4.87;;;2.10;;
6105;SDS011;3083;51.508;7.966;2023-02-28T01:02:13;5.30;;;2.20;;
6105;SDS011;3083;51.508;7.966;2023-02-28T01:04:40;3.30;;;1.67;;
6105;SDS011;3083;51.508;7.966;2023-02-28T01:07:07;4.40;;;2.23;;
6105;SDS011;3083;51.508;7.966;2023-02-28T01:09:35;4.17;;;2.20;;
6105;SDS011;3083;51.508;7.966;2023-02-28T01:12:03;5.50;;;2.60;;
6105;SDS011;3083;51.508;7.966;2023-02-28T01:14:30;6.00;;;2.07;;
6105;SDS011;3083;51.508;7.966;2023-02-28T01:16:57;4.50;;;2.10;;
6105;SDS011;3083;51.508;7.966;2023-02-28T01:19:23;5.40;;;1.93;;
6105;SDS011;3083;51.508;7.966;2023-02-28T01:21:50;3.90;;;1.80;;
6105;SDS011;3083;51.508;7.966;2023-02-28T01:24:17;6.40;;;2.40;;
6105;SDS011;3083;51.508;7.966;2023-02-28T01:26:46;4.50;;;2.27;;
6105;SDS011;3083;51.508;7.966;2023-02-28T01:29:12;5.93;;;2.30;;
6105;SDS011;3083;51.508;7.966;2023-02-28T01:31:40;7.70;;;2.53;;
6105;SDS011;3083;51.508;7.966;2023-02-28T01:34:07;5.40;;;2.37;;
6105;SDS011;3083;51.508;7.966;2023-02-28T01:36:34;6.13;;;2.70;;
6105;SDS011;3083;51.508;7.966;2023-02-28T01:39:01;4.10;;;2.40;;
6105;SDS011;3083;51.508;7.966;2023-02-28T01:41:29;6.20;;;2.10;;
6105;SDS011;3083;51.508;7.966;2023-02-28T01:44:01;4.30;;;1.90;;
6105;SDS011;3083;51.508;7.966;2023-02-28T01:46:30;4.57;;;2.30;;
6105;SDS011;3083;51.508;7.966;2023-02-28T01:48:59;6.80;;;2.50;;
6105;SDS011;3083;51.508;7.966;2023-02-28T01:51:31;5.17;;;2.50;;
6105;SDS011;3083;51.508;7.966;2023-02-28T01:54:04;4.57;;;2.23;;
6105;SDS011;3083;51.508;7.966;2023-02-28T01:56:38;7.20;;;2.70;;
6105;SDS011;3083;51.508;7.966;2023-02-28T01:59:11;4.70;;;2.17;;
6105;SDS011;3083;51.508;7.966;2023-02-28T02:01:40;6.00;;;2.30;;
6105;SDS011;3083;51.508;7.966;2023-02-28T02:04:08;3.90;;;2.23;;
6105;SDS011;3083;51.508;7.966;2023-02-28T02:06:38;4.80;;;2.33;;
6105;SDS011;3083;51.508;7.966;2023-02-28T02:09:09;7.90;;;2.70;;
6105;SDS011;3083;51.508;7.966;2023-02-28T02:11:37;3.67;;;2.07;;
6105;SDS011;3083;51.508;7.966;2023-02-28T02:14:17;5.40;;;2.50;;
6105;SDS011;3083;51.508;7.966;2023-02-28T02:17:09;6.13;;;2.83;;
6105;SDS011;3083;51.508;7.966;2023-02-28T02:19:52;7.30;;;2.27;;
6105;SDS011;3083;51.508;7.966;2023-02-28T02:23:02;5.70;;;2.10;;
6105;SDS011;3083;51.508;7.966;2023-02-28T02:25:47;8.50;;;3.00;;
6105;SDS011;3083;51.508;7.966;2023-02-28T02:28:22;3.83;;;1.93;;
6105;SDS011;3083;51.508;7.966;2023-02-28T02:31:17;6.70;;;2.63;;
6105;SDS011;3083;51.508;7.966;2023-02-28T02:34:21;3.93;;;1.97;;
6105;SDS011;3083;51.508;7.966;2023-02-28T02:37:08;3.97;;;2.03;;
6105;SDS011;3083;51.508;7.966;2023-02-28T02:39:43;4.23;;;2.17;;
6105;SDS011;3083;51.508;7.966;2023-02-28T02:42:16;4.20;;;2.17;;
6105;SDS011;3083;51.508;7.966;2023-02-28T02:44:50;3.97;;;2.00;;
6105;SDS011;3083;51.508;7.966;2023-02-28T02:47:24;5.10;;;2.00;;
6105;SDS011;3083;51.508;7.966;2023-02-28T02:49:57;3.70;;;1.97;;
6105;SDS011;3083;51.508;7.966;2023-02-28T02:52:32;5.70;;;2.40;;
6105;SDS011;3083;51.508;7.966;2023-02-28T02:55:04;4.90;;;1.93;;
6105;SDS011;3083;51.508;7.966;2023-02-28T02:57:36;4.70;;;2.27;;
6105;SDS011;3083;51.508;7.966;2023-02-28T03:00:07;4.40;;;1.97;;
6105;SDS011;3083;51.508;7.966;2023-02-28T03:02:36;4.63;;;2.13;;
6105;SDS011;3083;51.508;7.966;2023-02-28T03:05:06;4.00;;;2.17;;
6105;SDS011;3083;51.508;7.966;2023-02-28T03:07:40;4.40;;;1.77;;
6105;SDS011;3083;51.508;7.966;2023-02-28T03:13:00;3.83;;;1.80;;
6105;SDS011;3083;51.508;7.966;2023-02-28T03:15:40;4.90;;;1.80;;
6105;SDS011;3083;51.508;7.966;2023-02-28T03:18:29;3.47;;;1.90;;
6105;SDS011;3083;51.508;7.966;2023-02-28T03:21:05;4.20;;;1.77;;
6105;SDS011;3083;51.508;7.966;2023-02-28T03:23:42;4.10;;;2.03;;
6105;SDS011;3083;51.508;7.966;2023-02-28T03:26:19;3.67;;;1.90;;
6105;SDS011;3083;51.508;7.966;2023-02-28T03:28:51;4.73;;;1.47;;
6105;SDS011;3083;51.508;7.966;2023-02-28T04:35:23;4.50;;;1.80;;
6105;SDS011;3083;51.508;7.966;2023-02-28T04:37:50;4.40;;;2.00;;
6105;SDS011;3083;51.508;7.966;2023-02-28T04:40:17;3.60;;;1.93;;
6105;SDS011;3083;51.508;7.966;2023-02-28T04:42:43;4.77;;;2.30;;
6105;SDS011;3083;51.508;7.966;2023-02-28T04:45:10;4.47;;;1.80;;
6105;SDS011;3083;51.508;7.966;2023-02-28T04:47:37;5.43;;;1.97;;
6105;SDS011;3083;51.508;7.966;2023-02-28T04:50:05;4.10;;;2.33;;
6105;SDS011;3083;51.508;7.966;2023-02-28T04:52:34;4.30;;;2.30;;
6105;SDS011;3083;51.508;7.966;2023-02-28T04:55:00;5.47;;;2.30;;
6105;SDS011;3083;51.508;7.966;2023-02-28T04:57:27;5.53;;;2.70;;
6105;SDS011;3083;51.508;7.966;2023-02-28T04:59:55;4.90;;;2.37;;
6105;SDS011;3083;51.508;7.966;2023-02-28T05:02:22;4.83;;;2.57;;
6105;SDS011;3083;51.508;7.966;2023-02-28T05:04:48;6.73;;;2.97;;
6105;SDS011;3083;51.508;7.966;2023-02-28T05:07:15;5.07;;;2.60;;
6105;SDS011;3083;51.508;7.966;2023-02-28T05:09:45;5.60;;;2.73;;
6105;SDS011;3083;51.508;7.966;2023-02-28T05:12:12;5.47;;;2.60;;
6105;SDS011;3083;51.508;7.966;2023-02-28T05:14:39;6.10;;;3.17;;
6105;SDS011;3083;51.508;7.966;2023-02-28T05:17:06;3.50;;;1.90;;
6105;SDS011;3083;51.508;7.966;2023-02-28T05:19:33;5.63;;;2.60;;
6105;SDS011;3083;51.508;7.966;2023-02-28T05:22:00;4.70;;;2.50;;
6105;SDS011;3083;51.508;7.966;2023-02-28T05:24:27;4.53;;;2.20;;
6105;SDS011;3083;51.508;7.966;2023-02-28T05:26:55;4.40;;;2.50;;
6105;SDS011;3083;51.508;7.966;2023-02-28T05:29:23;3.63;;;2.27;;
6105;SDS011;3083;51.508;7.966;2023-02-28T05:31:50;5.30;;;2.40;;
6105;SDS011;3083;51.508;7.966;2023-02-28T05:34:17;4.50;;;2.33;;
6105;SDS011;3083;51.508;7.966;2023-02-28T05:36:44;6.07;;;2.60;;
6105;SDS011;3083;51.508;7.966;2023-02-28T05:39:11;4.03;;;2.03;;
6105;SDS011;3083;51.508;7.966;2023-02-28T05:41:39;4.77;;;2.37;;
6105;SDS011;3083;51.508;7.966;2023-02-28T05:44:08;3.53;;;1.63;;
6105;SDS011;3083;51.508;7.966;2023-02-28T05:46:35;4.80;;;2.30;;
6105;SDS011;3083;51.508;7.966;2023-02-28T05:49:03;4.00;;;2.10;;
6105;SDS011;3083;51.508;7.966;2023-02-28T05:51:30;5.60;;;2.50;;
6105;SDS011;3083;51.508;7.966;2023-02-28T05:54:00;5.80;;;2.47;;
6105;SDS011;3083;51.508;7.966;2023-02-28T05:56:27;4.00;;;2.50;;
6105;SDS011;3083;51.508;7.966;2023-02-28T05:58:54;25.63;;;2.40;;
6105;SDS011;3083;51.508;7.966;2023-02-28T06:01:26;5.13;;;2.30;;
6105;SDS011;3083;51.508;7.966;2023-02-28T06:03:58;4.37;;;2.03;;
6105;SDS011;3083;51.508;7.966;2023-02-28T06:06:26;3.67;;;2.03;;
6105;SDS011;3083;51.508;7.966;2023-02-28T06:08:54;3.03;;;2.10;;
6105;SDS011;3083;51.508;7.966;2023-02-28T06:11:21;7.40;;;2.67;;
6105;SDS011;3083;51.508;7.966;2023-02-28T06:13:52;6.93;;;2.63;;
6105;SDS011;3083;51.508;7.966;2023-02-28T06:16:20;5.10;;;2.30;;
6105;SDS011;3083;51.508;7.966;2023-02-28T06:18:49;5.30;;;2.70;;
6105;SDS011;3083;51.508;7.966;2023-02-28T06:21:15;4.03;;;2.10;;
6105;SDS011;3083;51.508;7.966;2023-02-28T06:23:42;3.90;;;1.97;;
6105;SDS011;3083;51.508;7.966;2023-02-28T06:26:09;4.57;;;2.00;;
6105;SDS011;3083;51.508;7.966;2023-02-28T06:28:37;4.70;;;2.13;;
6105;SDS011;3083;51.508;7.966;2023-02-28T06:31:07;4.60;;;2.13;;
6105;SDS011;3083;51.508;7.966;2023-02-28T06:33:35;4.83;;;2.00;;
6105;SDS011;3083;51.508;7.966;2023-02-28T06:36:04;5.10;;;2.60;;
6105;SDS011;3083;51.508;7.966;2023-02-28T06:38:32;4.63;;;2.20;;
6105;SDS011;3083;51.508;7.966;2023-02-28T06:41:00;4.13;;;2.20;;
6105;SDS011;3083;51.508;7.966;2023-02-28T06:43:28;4.50;;;1.87;;
6105;SDS011;3083;51.508;7.966;2023-02-28T06:45:57;5.20;;;1.77;;
6105;SDS011;3083;51.508;7.966;2023-02-28T06:48:25;5.63;;;3.07;;
6105;SDS011;3083;51.508;7.966;2023-02-28T06:51:00;4.70;;;2.40;;
6105;SDS011;3083;51.508;7.966;2023-02-28T06:53:29;4.57;;;2.20;;
6105;SDS011;3083;51.508;7.966;2023-02-28T06:55:56;5.27;;;2.80;;
6105;SDS011;3083;51.508;7.966;2023-02-28T06:58:23;6.07;;;2.97;;
6105;SDS011;3083;51.508;7.966;2023-02-28T07:00:50;3.73;;;2.13;;
6105;SDS011;3083;51.508;7.966;2023-02-28T07:03:21;4.37;;;2.23;;
6105;SDS011;3083;51.508;7.966;2023-02-28T07:05:48;4.80;;;2.70;;
6105;SDS011;3083;51.508;7.966;2023-02-28T07:08:16;6.43;;;2.73;;
6105;SDS011;3083;51.508;7.966;2023-02-28T07:10:44;6.60;;;3.00;;
6105;SDS011;3083;51.508;7.966;2023-02-28T07:13:11;7.70;;;3.10;;
6105;SDS011;3083;51.508;7.966;2023-02-28T07:15:38;7.50;;;3.10;;
6105;SDS011;3083;51.508;7.966;2023-02-28T07:18:05;7.73;;;2.83;;
6105;SDS011;3083;51.508;7.966;2023-02-28T07:20:32;5.03;;;2.60;;
6105;SDS011;3083;51.508;7.966;2023-02-28T07:22:59;5.33;;;2.43;;
6105;SDS011;3083;51.508;7.966;2023-02-28T07:25:26;9.57;;;3.70;;
6105;SDS011;3083;51.508;7.966;2023-02-28T07:27:56;7.50;;;2.83;;
6105;SDS011;3083;51.508;7.966;2023-02-28T07:30:24;8.00;;;2.90;;
6105;SDS011;3083;51.508;7.966;2023-02-28T07:32:51;5.50;;;3.17;;
6105;SDS011;3083;51.508;7.966;2023-02-28T07:35:19;6.20;;;3.00;;
6105;SDS011;3083;51.508;7.966;2023-02-28T07:37:46;6.70;;;3.60;;
6105;SDS011;3083;51.508;7.966;2023-02-28T07:40:13;8.33;;;3.37;;
6105;SDS011;3083;51.508;7.966;2023-02-28T07:42:43;9.30;;;3.60;;
6105;SDS011;3083;51.508;7.966;2023-02-28T07:45:11;7.70;;;3.40;;
6105;SDS011;3083;51.508;7.966;2023-02-28T07:47:39;5.57;;;2.90;;
6105;SDS011;3083;51.508;7.966;2023-02-28T07:50:08;5.93;;;3.30;;
6105;SDS011;3083;51.508;7.966;2023-02-28T07:52:38;6.53;;;3.00;;
6105;SDS011;3083;51.508;7.966;2023-02-28T07:55:07;5.80;;;3.00;;
6105;SDS011;3083;51.508;7.966;2023-02-28T07:57:35;8.60;;;3.90;;
6105;SDS011;3083;51.508;7.966;2023-02-28T08:00:04;9.73;;;3.43;;
6105;SDS011;3083;51.508;7.966;2023-02-28T08:02:35;9.97;;;3.80;;
6105;SDS011;3083;51.508;7.966;2023-02-28T08:05:02;8.50;;;3.50;;
6105;SDS011;3083;51.508;7.966;2023-02-28T08:07:30;5.60;;;2.60;;
6105;SDS011;3083;51.508;7.966;2023-02-28T08:09:57;7.03;;;3.13;;
6105;SDS011;3083;51.508;7.966;2023-02-28T08:12:24;9.40;;;2.83;;
6105;SDS011;3083;51.508;7.966;2023-02-28T08:14:51;5.83;;;3.33;;
6105;SDS011;3083;51.508;7.966;2023-02-28T08:17:18;7.00;;;3.50;;
6105;SDS011;3083;51.508;7.966;2023-02-28T08:19:46;7.50;;;3.57;;
6105;SDS011;3083;51.508;7.966;2023-02-28T08:22:14;6.77;;;3.50;;
6105;SDS011;3083;51.508;7.966;2023-02-28T08:24:41;8.87;;;4.17;;
6105;SDS011;3083;51.508;7.966;2023-02-28T08:27:08;10.30;;;4.37;;
6105;SDS011;3083;51.508;7.966;2023-02-28T08:29:36;9.10;;;3.60;;
6105;SDS011;3083;51.508;7.966;2023-02-28T08:32:03;9.23;;;3.73;;
6105;SDS011;3083;51.508;7.966;2023-02-28T08:34:30;8.67;;;3.70;;
6105;SDS011;3083;51.508;7.966;2023-02-28T08:36:59;11.90;;;4.70;;
6105;SDS011;3083;51.508;7.966;2023-02-28T08:39:26;8.60;;;3.70;;
6105;SDS011;3083;51.508;7.966;2023-02-28T08:41:52;10.23;;;4.00;;
6105;SDS011;3083;51.508;7.966;2023-02-28T08:44:19;7.93;;;4.00;;
6105;SDS011;3083;51.508;7.966;2023-02-28T08:46:46;11.50;;;4.67;;
6105;SDS011;3083;51.508;7.966;2023-02-28T08:49:13;7.93;;;3.80;;
6105;SDS011;3083;51.508;7.966;2023-02-28T08:51:40;8.67;;;4.50;;
6105;SDS011;3083;51.508;7.966;2023-02-28T08:54:09;8.03;;;3.97;;
6105;SDS011;3083;51.508;7.966;2023-02-28T08:56:37;8.60;;;4.10;;
6105;SDS011;3083;51.508;7.966;2023-02-28T08:59:04;9.20;;;4.20;;
6105;SDS011;3083;51.508;7.966;2023-02-28T09:01:31;11.30;;;4.13;;
6105;SDS011;3083;51.508;7.966;2023-02-28T09:03:58;6.27;;;3.40;;
6105;SDS011;3083;51.508;7.966;2023-02-28T09:06:26;7.20;;;3.00;;
6105;SDS011;3083;51.508;7.966;2023-02-28T09:08:55;10.00;;;4.23;;
6105;SDS011;3083;51.508;7.966;2023-02-28T09:11:26;11.03;;;4.60;;
6105;SDS011;3083;51.508;7.966;2023-02-28T09:13:53;12.63;;;3.53;;
6105;SDS011;3083;51.508;7.966;2023-02-28T09:16:21;8.40;;;3.87;;
6105;SDS011;3083;51.508;7.966;2023-02-28T09:18:49;9.50;;;3.80;;
6105;SDS011;3083;51.508;7.966;2023-02-28T09:21:17;18.53;;;4.90;;
6105;SDS011;3083;51.508;7.966;2023-02-28T09:23:46;8.93;;;3.70;;
6105;SDS011;3083;51.508;7.966;2023-02-28T09:26:14;8.57;;;3.33;;
6105;SDS011;3083;51.508;7.966;2023-02-28T09:28:44;15.40;;;6.50;;
6105;SDS011;3083;51.508;7.966;2023-02-28T09:31:12;10.90;;;6.33;;
6105;SDS011;3083;51.508;7.966;2023-02-28T09:33:39;13.97;;;5.80;;
6105;SDS011;3083;51.508;7.966;2023-02-28T09:36:07;9.90;;;4.40;;
6105;SDS011;3083;51.508;7.966;2023-02-28T09:38:34;12.97;;;6.03;;
6105;SDS011;3083;51.508;7.966;2023-02-28T09:41:02;8.47;;;3.80;;
6105;SDS011;3083;51.508;7.966;2023-02-28T09:43:37;10.93;;;5.80;;
6105;SDS011;3083;51.508;7.966;2023-02-28T09:46:12;8.20;;;3.70;;
6105;SDS011;3083;51.508;7.966;2023-02-28T09:48:47;7.47;;;3.47;;
6105;SDS011;3083;51.508;7.966;2023-02-28T09:51:21;6.80;;;3.50;;
6105;SDS011;3083;51.508;7.966;2023-02-28T09:53:57;8.53;;;3.57;;
6105;SDS011;3083;51.508;7.966;2023-02-28T09:56:27;11.80;;;3.70;;
6105;SDS011;3083;51.508;7.966;2023-02-28T09:59:04;10.20;;;3.10;;
6105;SDS011;3083;51.508;7.966;2023-02-28T10:01:41;10.20;;;4.57;;
6105;SDS011;3083;51.508;7.966;2023-02-28T10:04:15;7.27;;;3.73;;
6105;SDS011;3083;51.508;7.966;2023-02-28T10:06:52;5.40;;;3.47;;
6105;SDS011;3083;51.508;7.966;2023-02-28T10:09:21;14.90;;;4.17;;
6105;SDS011;3083;51.508;7.966;2023-02-28T10:11:51;16.20;;;4.10;;
6105;SDS011;3083;51.508;7.966;2023-02-28T10:14:21;10.33;;;3.83;;
6105;SDS011;3083;51.508;7.966;2023-02-28T10:16:51;9.23;;;3.50;;
6105;SDS011;3083;51.508;7.966;2023-02-28T10:19:22;5.90;;;3.60;;
6105;SDS011;3083;51.508;7.966;2023-02-28T10:22:02;9.80;;;3.63;;
6105;SDS011;3083;51.508;7.966;2023-02-28T10:24:34;8.80;;;4.00;;
6105;SDS011;3083;51.508;7.966;2023-02-28T10:27:06;8.50;;;3.70;;
6105;SDS011;3083;51.508;7.966;2023-02-28T10:29:40;6.53;;;3.50;;
6105;SDS011;3083;51.508;7.966;2023-02-28T10:32:12;7.20;;;3.37;;
6105;SDS011;3083;51.508;7.966;2023-02-28T10:34:42;7.27;;;3.97;;
6105;SDS011;3083;51.508;7.966;2023-02-28T10:37:10;6.67;;;3.67;;
6105;SDS011;3083;51.508;7.966;2023-02-28T10:39:41;6.60;;;3.00;;
6105;SDS011;3083;51.508;7.966;2023-02-28T10:42:21;8.40;;;3.33;;
6105;SDS011;3083;51.508;7.966;2023-02-28T10:45:03;8.87;;;3.47;;
6105;SDS011;3083;51.508;7.966;2023-02-28T10:47:35;6.57;;;2.30;;
6105;SDS011;3083;51.508;7.966;2023-02-28T10:52:54;4.03;;;2.00;;
6105;SDS011;3083;51.508;7.966;2023-02-28T10:55:31;4.60;;;2.33;;
6105;SDS011;3083;51.508;7.966;2023-02-28T10:57:58;6.03;;;3.30;;
6105;SDS011;3083;51.508;7.966;2023-02-28T11:00:25;3.90;;;1.70;;
6105;SDS011;3083;51.508;7.966;2023-02-28T11:03:02;6.57;;;3.30;;
6105;SDS011;3083;51.508;7.966;2023-02-28T11:05:52;6.30;;;3.00;;
6105;SDS011;3083;51.508;7.966;2023-02-28T11:08:18;4.33;;;1.70;;
6105;SDS011;3083;51.508;7.966;2023-02-28T11:10:46;8.20;;;2.07;;
6105;SDS011;3083;51.508;7.966;2023-02-28T11:13:16;6.30;;;2.70;;
6105;SDS011;3083;51.508;7.966;2023-02-28T11:15:49;5.33;;;2.23;;
6105;SDS011;3083;51.508;7.966;2023-02-28T11:18:22;6.50;;;2.83;;
6105;SDS011;3083;51.508;7.966;2023-02-28T11:20:53;5.27;;;2.67;;
6105;SDS011;3083;51.508;7.966;2023-02-28T11:23:24;5.87;;;3.40;;
6105;SDS011;3083;51.508;7.966;2023-02-28T11:25:54;10.63;;;3.40;;
6105;SDS011;3083;51.508;7.966;2023-02-28T11:28:24;6.70;;;2.50;;
6105;SDS011;3083;51.508;7.966;2023-02-28T11:31:00;5.40;;;2.67;;
6105;SDS011;3083;51.508;7.966;2023-02-28T11:33:30;7.77;;;3.70;;
6105;SDS011;3083;51.508;7.966;2023-02-28T11:36:09;9.17;;;2.77;;
6105;SDS011;3083;51.508;7.966;2023-02-28T11:38:38;8.07;;;3.47;;
6105;SDS011;3083;51.508;7.966;2023-02-28T11:41:09;5.67;;;2.00;;
6105;SDS011;3083;51.508;7.966;2023-02-28T11:43:58;6.43;;;3.70;;
6105;SDS011;3083;51.508;7.966;2023-02-28T11:46:33;6.83;;;3.80;;
6105;SDS011;3083;51.508;7.966;2023-02-28T11:49:10;5.47;;;2.90;;
6105;SDS011;3083;51.508;7.966;2023-02-28T11:51:50;5.90;;;2.30;;
6105;SDS011;3083;51.508;7.966;2023-02-28T11:54:32;4.37;;;2.77;;
6105;SDS011;3083;51.508;7.966;2023-02-28T11:57:20;5.13;;;2.07;;
6105;SDS011;3083;51.508;7.966;2023-02-28T12:00:00;6.90;;;2.70;;
6105;SDS011;3083;51.508;7.966;2023-02-28T12:02:35;4.63;;;2.93;;
6105;SDS011;3083;51.508;7.966;2023-02-28T12:05:23;6.23;;;3.37;;
6105;SDS011;3083;51.508;7.966;2023-02-28T12:07:59;5.20;;;2.67;;
6105;SDS011;3083;51.508;7.966;2023-02-28T12:10:33;6.20;;;3.13;;
6105;SDS011;3083;51.508;7.966;2023-02-28T12:13:08;8.37;;;3.43;;
6105;SDS011;3083;51.508;7.966;2023-02-28T12:15:56;5.57;;;1.80;;
6105;SDS011;3083;51.508;7.966;2023-02-28T12:18:45;8.50;;;3.97;;
6105;SDS011;3083;51.508;7.966;2023-02-28T12:21:24;3.67;;;1.90;;
6105;SDS011;3083;51.508;7.966;2023-02-28T12:24:04;6.70;;;3.80;;
6105;SDS011;3083;51.508;7.966;2023-02-28T12:26:42;5.60;;;2.57;;
6105;SDS011;3083;51.508;7.966;2023-02-28T12:29:14;5.33;;;2.70;;
6105;SDS011;3083;51.508;7.966;2023-02-28T12:31:47;6.93;;;2.90;;
6105;SDS011;3083;51.508;7.966;2023-02-28T12:34:19;6.10;;;3.20;;
6105;SDS011;3083;51.508;7.966;2023-02-28T12:36:50;3.97;;;2.40;;
6105;SDS011;3083;51.508;7.966;2023-02-28T12:39:20;7.77;;;3.50;;
6105;SDS011;3083;51.508;7.966;2023-02-28T12:41:52;7.10;;;3.20;;
6105;SDS011;3083;51.508;7.966;2023-02-28T12:44:23;6.30;;;3.10;;
6105;SDS011;3083;51.508;7.966;2023-02-28T12:46:58;4.40;;;2.23;;
6105;SDS011;3083;51.508;7.966;2023-02-28T12:49:28;5.17;;;2.33;;
6105;SDS011;3083;51.508;7.966;2023-02-28T12:51:59;6.43;;;3.77;;
6105;SDS011;3083;51.508;7.966;2023-02-28T12:54:28;4.77;;;2.63;;
6105;SDS011;3083;51.508;7.966;2023-02-28T12:57:01;6.50;;;3.60;;
6105;SDS011;3083;51.508;7.966;2023-02-28T12:59:36;6.13;;;3.43;;
6105;SDS011;3083;51.508;7.966;2023-02-28T13:02:18;7.90;;;3.17;;
6105;SDS011;3083;51.508;7.966;2023-02-28T13:08:33;7.83;;;3.70;;
6105;SDS011;3083;51.508;7.966;2023-02-28T13:11:24;4.00;;;2.20;;
6105;SDS011;3083;51.508;7.966;2023-02-28T13:13:57;5.10;;;3.20;;
6105;SDS011;3083;51.508;7.966;2023-02-28T13:16:26;5.20;;;3.07;;
6105;SDS011;3083;51.508;7.966;2023-02-28T13:19:07;5.23;;;3.10;;
6105;SDS011;3083;51.508;7.966;2023-02-28T13:21:41;6.70;;;3.80;;
6105;SDS011;3083;51.508;7.966;2023-02-28T13:24:11;8.60;;;4.07;;
6105;SDS011;3083;51.508;7.966;2023-02-28T13:33:21;5.73;;;2.13;;
6105;SDS011;3083;51.508;7.966;2023-02-28T13:36:10;5.63;;;3.23;;
6105;SDS011;3083;51.508;7.966;2023-02-28T13:38:49;8.60;;;4.30;;
6105;SDS011;3083;51.508;7.966;2023-02-28T13:44:15;4.60;;;2.77;;
6105;SDS011;3083;51.508;7.966;2023-02-28T13:49:50;7.27;;;2.77;;
6105;SDS011;3083;51.508;7.966;2023-02-28T13:52:18;5.67;;;3.10;;
6105;SDS011;3083;51.508;7.966;2023-02-28T13:55:00;5.43;;;2.47;;
6105;SDS011;3083;51.508;7.966;2023-02-28T13:57:55;7.60;;;3.73;;
6105;SDS011;3083;51.508;7.966;2023-02-28T14:00:40;8.10;;;3.90;;
6105;SDS011;3083;51.508;7.966;2023-02-28T14:03:26;7.07;;;3.30;;
6105;SDS011;3083;51.508;7.966;2023-02-28T14:06:08;6.73;;;4.13;;
6105;SDS011;3083;51.508;7.966;2023-02-28T14:08:45;6.43;;;3.50;;
6105;SDS011;3083;51.508;7.966;2023-02-28T14:11:29;3.87;;;1.97;;
6105;SDS011;3083;51.508;7.966;2023-02-28T14:13:59;3.90;;;1.33;;
6105;SDS011;3083;51.508;7.966;2023-02-28T14:16:28;6.80;;;4.10;;
6105;SDS011;3083;51.508;7.966;2023-02-28T14:19:05;9.30;;;3.57;;
6105;SDS011;3083;51.508;7.966;2023-02-28T14:21:40;5.63;;;3.10;;
6105;SDS011;3083;51.508;7.966;2023-02-28T14:27:29;6.40;;;2.80;;
6105;SDS011;3083;51.508;7.966;2023-02-28T14:30:17;7.40;;;3.90;;
6105;SDS011;3083;51.508;7.966;2023-02-28T14:33:22;7.70;;;3.20;;
6105;SDS011;3083;51.508;7.966;2023-02-28T14:36:04;6.00;;;3.33;;
6105;SDS011;3083;51.508;7.966;2023-02-28T14:38:36;9.80;;;4.67;;
6105;SDS011;3083;51.508;7.966;2023-02-28T14:41:12;6.17;;;3.27;;
6105;SDS011;3083;51.508;7.966;2023-02-28T14:43:48;6.90;;;4.03;;
6105;SDS011;3083;51.508;7.966;2023-02-28T14:46:21;8.67;;;3.80;;
6105;SDS011;3083;51.508;7.966;2023-02-28T14:48:51;8.70;;;4.40;;
6105;SDS011;3083;51.508;7.966;2023-02-28T14:51:19;3.43;;;2.03;;
6105;SDS011;3083;51.508;7.966;2023-02-28T14:53:48;6.80;;;3.70;;
6105;SDS011;3083;51.508;7.966;2023-02-28T14:56:21;7.67;;;4.33;;
6105;SDS011;3083;51.508;7.966;2023-02-28T14:58:52;8.43;;;4.00;;
6105;SDS011;3083;51.508;7.966;2023-02-28T15:01:22;7.03;;;3.77;;
6105;SDS011;3083;51.508;7.966;2023-02-28T15:03:57;10.50;;;4.00;;
6105;SDS011;3083;51.508;7.966;2023-02-28T15:06:26;8.47;;;3.90;;
6105;SDS011;3083;51.508;7.966;2023-02-28T15:09:06;7.50;;;3.53;;
6105;SDS011;3083;51.508;7.966;2023-02-28T15:11:35;7.90;;;3.80;;
6105;SDS011;3083;51.508;7.966;2023-02-28T15:14:03;9.87;;;4.20;;
6105;SDS011;3083;51.508;7.966;2023-02-28T15:16:33;7.67;;;4.00;;
6105;SDS011;3083;51.508;7.966;2023-02-28T15:19:04;7.47;;;4.10;;
6105;SDS011;3083;51.508;7.966;2023-02-28T15:21:39;8.83;;;4.20;;
6105;SDS011;3083;51.508;7.966;2023-02-28T15:24:11;7.43;;;3.80;;
6105;SDS011;3083;51.508;7.966;2023-02-28T15:26:49;5.17;;;2.40;;
6105;SDS011;3083;51.508;7.966;2023-02-28T15:29:21;6.90;;;3.07;;
6105;SDS011;3083;51.508;7.966;2023-02-28T15:31:54;5.80;;;3.07;;
6105;SDS011;3083;51.508;7.966;2023-02-28T15:34:26;6.00;;;3.17;;
6105;SDS011;3083;51.508;7.966;2023-02-28T15:36:55;6.37;;;3.10;;
6105;SDS011;3083;51.508;7.966;2023-02-28T15:39:23;8.03;;;3.53;;
6105;SDS011;3083;51.508;7.966;2023-02-28T15:41:52;9.20;;;2.97;;
6105;SDS011;3083;51.508;7.966;2023-02-28T15:44:35;4.90;;;2.57;;
6105;SDS011;3083;51.508;7.966;2023-02-28T15:47:04;6.70;;;2.97;;
6105;SDS011;3083;51.508;7.966;2023-02-28T15:49:36;8.67;;;4.20;;
6105;SDS011;3083;51.508;7.966;2023-02-28T15:52:09;9.03;;;3.70;;
6105;SDS011;3083;51.508;7.966;2023-02-28T15:54:40;13.40;;;3.83;;
6105;SDS011;3083;51.508;7.966;2023-02-28T15:57:10;6.40;;;3.80;;
6105;SDS011;3083;51.508;7.966;2023-02-28T15:59:42;7.03;;;3.77;;
6105;SDS011;3083;51.508;7.966;2023-02-28T16:02:17;8.73;;;4.77;;
6105;SDS011;3083;51.508;7.966;2023-02-28T16:04:58;7.97;;;4.30;;
6105;SDS011;3083;51.508;7.966;2023-02-28T16:07:27;8.10;;;4.20;;
6105;SDS011;3083;51.508;7.966;2023-02-28T16:09:54;9.60;;;4.00;;
6105;SDS011;3083;51.508;7.966;2023-02-28T16:12:24;6.30;;;3.20;;
6105;SDS011;3083;51.508;7.966;2023-02-28T16:14:54;9.70;;;3.93;;
6105;SDS011;3083;51.508;7.966;2023-02-28T16:17:24;7.00;;;3.67;;
6105;SDS011;3083;51.508;7.966;2023-02-28T16:19:53;8.00;;;3.80;;
6105;SDS011;3083;51.508;7.966;2023-02-28T16:22:20;7.73;;;3.80;;
6105;SDS011;3083;51.508;7.966;2023-02-28T16:24:48;6.97;;;4.43;;
6105;SDS011;3083;51.508;7.966;2023-02-28T16:27:16;8.50;;;4.30;;
6105;SDS011;3083;51.508;7.966;2023-02-28T16:29:46;6.93;;;3.80;;
6105;SDS011;3083;51.508;7.966;2023-02-28T16:32:14;8.70;;;3.63;;
6105;SDS011;3083;51.508;7.966;2023-02-28T16:34:43;9.43;;;4.27;;
6105;SDS011;3083;51.508;7.966;2023-02-28T16:37:11;7.27;;;3.60;;
6105;SDS011;3083;51.508;7.966;2023-02-28T16:39:39;6.70;;;3.43;;
6105;SDS011;3083;51.508;7.966;2023-02-28T16:42:09;7.93;;;4.00;;
6105;SDS011;3083;51.508;7.966;2023-02-28T16:44:40;7.77;;;3.93;;
6105;SDS011;3083;51.508;7.966;2023-02-28T16:47:09;9.17;;;4.80;;
6105;SDS011;3083;51.508;7.966;2023-02-28T16:49:37;9.53;;;4.50;;
6105;SDS011;3083;51.508;7.966;2023-02-28T16:52:08;8.33;;;3.90;;
6105;SDS011;3083;51.508;7.966;2023-02-28T16:54:35;7.73;;;4.50;;
6105;SDS011;3083;51.508;7.966;2023-02-28T16:57:02;8.80;;;4.77;;
6105;SDS011;3083;51.508;7.966;2023-02-28T16:59:30;9.93;;;4.00;;
6105;SDS011;3083;51.508;7.966;2023-02-28T17:01:58;7.20;;;4.10;;
6105;SDS011;3083;51.508;7.966;2023-02-28T17:04:25;7.73;;;3.87;;
6105;SDS011;3083;51.508;7.966;2023-02-28T17:06:52;9.03;;;4.10;;
6105;SDS011;3083;51.508;7.966;2023-02-28T17:09:21;11.10;;;4.10;;